sensor_id;sensor_type;location;lat;lon;timestamp;P1;durP1;ratioP1;P2;durP2;ratioP2
66626;SDS011;53498;50.422;14.912;2023-05-24T00:00:13;5.85;;;3.50;;
66626;SDS011;53498;50.422;14.912;2023-05-24T00:03:00;4.40;;;3.08;;
66626;SDS011;53498;50.422;14.912;2023-05-24T00:05:28;4.72;;;3.40;;
66626;SDS011;53498;50.422;14.912;2023-05-24T00:07:55;5.47;;;3.20;;
66626;SDS011;53498;50.422;14.912;2023-05-24T00:10:21;6.05;;;3.47;;
66626;SDS011;53498;50.422;14.912;2023-05-24T00:12:47;9.02;;;4.43;;
66626;SDS011;53498;50.422;14.912;2023-05-24T00:15:12;8.18;;;4.00;;
66626;SDS011;53498;50.422;14.912;2023-05-24T00:17:38;7.50;;;4.25;;
66626;SDS011;53498;50.422;14.912;2023-05-24T00:20:10;5.95;;;4.25;;
66626;SDS011;53498;50.422;14.912;2023-05-24T00:22:36;6.25;;;4.18;;
66626;SDS011;53498;50.422;14.912;2023-05-24T00:25:02;8.48;;;4.10;;
66626;SDS011;53498;50.422;14.912;2023-05-24T00:27:29;9.35;;;4.15;;
66626;SDS011;53498;50.422;14.912;2023-05-24T00:29:56;8.20;;;4.22;;
66626;SDS011;53498;50.422;14.912;2023-05-24T00:32:21;5.10;;;3.85;;
66626;SDS011;53498;50.422;14.912;2023-05-24T00:34:47;10.00;;;4.55;;
66626;SDS011;53498;50.422;14.912;2023-05-24T00:37:12;20.13;;;6.38;;
66626;SDS011;53498;50.422;14.912;2023-05-24T00:39:39;9.27;;;4.88;;
66626;SDS011;53498;50.422;14.912;2023-05-24T00:42:05;9.30;;;5.13;;
66626;SDS011;53498;50.422;14.912;2023-05-24T00:44:31;7.45;;;4.57;;
66626;SDS011;53498;50.422;14.912;2023-05-24T00:46:57;12.70;;;5.47;;
66626;SDS011;53498;50.422;14.912;2023-05-24T00:49:25;10.48;;;4.90;;
66626;SDS011;53498;50.422;14.912;2023-05-24T00:51:52;10.00;;;5.25;;
66626;SDS011;53498;50.422;14.912;2023-05-24T00:54:18;10.75;;;5.32;;
66626;SDS011;53498;50.422;14.912;2023-05-24T00:56:45;9.75;;;5.03;;
66626;SDS011;53498;50.422;14.912;2023-05-24T00:59:12;10.38;;;5.55;;
66626;SDS011;53498;50.422;14.912;2023-05-24T01:01:38;15.50;;;5.68;;
66626;SDS011;53498;50.422;14.912;2023-05-24T01:04:06;9.75;;;5.03;;
66626;SDS011;53498;50.422;14.912;2023-05-24T01:06:37;11.90;;;5.18;;
66626;SDS011;53498;50.422;14.912;2023-05-24T01:14:57;10.50;;;5.63;;
66626;SDS011;53498;50.422;14.912;2023-05-24T01:17:35;8.38;;;5.63;;
66626;SDS011;53498;50.422;14.912;2023-05-24T01:20:10;10.70;;;5.55;;
66626;SDS011;53498;50.422;14.912;2023-05-24T01:25:38;12.30;;;5.88;;
66626;SDS011;53498;50.422;14.912;2023-05-24T01:28:11;8.10;;;5.50;;
66626;SDS011;53498;50.422;14.912;2023-05-24T01:30:38;8.98;;;5.20;;
66626;SDS011;53498;50.422;14.912;2023-05-24T01:33:06;12.73;;;5.95;;
66626;SDS011;53498;50.422;14.912;2023-05-24T01:35:31;9.13;;;5.03;;
66626;SDS011;53498;50.422;14.912;2023-05-24T01:38:04;8.85;;;5.15;;
66626;SDS011;53498;50.422;14.912;2023-05-24T01:40:35;11.20;;;5.72;;
66626;SDS011;53498;50.422;14.912;2023-05-24T01:43:22;9.85;;;5.07;;
66626;SDS011;53498;50.422;14.912;2023-05-24T01:46:04;15.85;;;5.85;;
66626;SDS011;53498;50.422;14.912;2023-05-24T01:51:41;14.25;;;5.20;;
66626;SDS011;53498;50.422;14.912;2023-05-24T01:54:19;12.10;;;5.45;;
66626;SDS011;53498;50.422;14.912;2023-05-24T01:56:47;13.75;;;5.97;;
66626;SDS011;53498;50.422;14.912;2023-05-24T01:59:13;10.18;;;4.80;;
66626;SDS011;53498;50.422;14.912;2023-05-24T02:01:39;11.85;;;5.30;;
66626;SDS011;53498;50.422;14.912;2023-05-24T02:04:06;9.60;;;5.18;;
66626;SDS011;53498;50.422;14.912;2023-05-24T02:06:31;17.90;;;6.05;;
66626;SDS011;53498;50.422;14.912;2023-05-24T02:08:57;11.48;;;5.32;;
66626;SDS011;53498;50.422;14.912;2023-05-24T02:11:22;9.32;;;5.47;;
66626;SDS011;53498;50.422;14.912;2023-05-24T02:13:48;14.23;;;5.57;;
66626;SDS011;53498;50.422;14.912;2023-05-24T02:16:13;12.60;;;5.70;;
66626;SDS011;53498;50.422;14.912;2023-05-24T02:18:40;12.65;;;5.28;;
66626;SDS011;53498;50.422;14.912;2023-05-24T02:21:08;13.65;;;5.57;;
66626;SDS011;53498;50.422;14.912;2023-05-24T02:23:34;10.77;;;4.75;;
66626;SDS011;53498;50.422;14.912;2023-05-24T02:26:00;16.95;;;6.78;;
66626;SDS011;53498;50.422;14.912;2023-05-24T02:28:26;14.57;;;5.47;;
66626;SDS011;53498;50.422;14.912;2023-05-24T02:30:52;8.18;;;4.70;;
66626;SDS011;53498;50.422;14.912;2023-05-24T02:33:18;16.45;;;5.50;;
66626;SDS011;53498;50.422;14.912;2023-05-24T02:35:43;7.65;;;4.72;;
66626;SDS011;53498;50.422;14.912;2023-05-24T02:38:09;11.25;;;5.43;;
66626;SDS011;53498;50.422;14.912;2023-05-24T02:40:34;9.82;;;5.15;;
66626;SDS011;53498;50.422;14.912;2023-05-24T02:43:00;10.10;;;5.05;;
66626;SDS011;53498;50.422;14.912;2023-05-24T02:45:25;9.25;;;4.32;;
66626;SDS011;53498;50.422;14.912;2023-05-24T02:47:51;13.88;;;5.13;;
66626;SDS011;53498;50.422;14.912;2023-05-24T02:50:16;14.45;;;4.72;;
66626;SDS011;53498;50.422;14.912;2023-05-24T02:52:42;8.98;;;4.72;;
66626;SDS011;53498;50.422;14.912;2023-05-24T02:55:08;8.95;;;4.93;;
66626;SDS011;53498;50.422;14.912;2023-05-24T02:57:33;10.32;;;4.25;;
66626;SDS011;53498;50.422;14.912;2023-05-24T02:59:59;17.95;;;4.97;;
66626;SDS011;53498;50.422;14.912;2023-05-24T03:02:24;12.48;;;4.35;;
66626;SDS011;53498;50.422;14.912;2023-05-24T03:04:52;9.95;;;4.20;;
66626;SDS011;53498;50.422;14.912;2023-05-24T03:07:18;7.88;;;3.90;;
66626;SDS011;53498;50.422;14.912;2023-05-24T03:09:43;10.38;;;3.95;;
66626;SDS011;53498;50.422;14.912;2023-05-24T03:12:09;12.57;;;4.50;;
66626;SDS011;53498;50.422;14.912;2023-05-24T03:14:35;7.57;;;3.65;;
66626;SDS011;53498;50.422;14.912;2023-05-24T03:17:01;9.05;;;4.15;;
66626;SDS011;53498;50.422;14.912;2023-05-24T03:19:26;11.05;;;4.93;;
66626;SDS011;53498;50.422;14.912;2023-05-24T03:21:52;10.63;;;4.03;;
66626;SDS011;53498;50.422;14.912;2023-05-24T03:24:17;11.80;;;4.07;;
66626;SDS011;53498;50.422;14.912;2023-05-24T03:26:43;14.73;;;4.85;;
66626;SDS011;53498;50.422;14.912;2023-05-24T03:29:09;13.82;;;4.40;;
66626;SDS011;53498;50.422;14.912;2023-05-24T03:31:35;11.75;;;4.30;;
66626;SDS011;53498;50.422;14.912;2023-05-24T03:34:00;13.88;;;4.22;;
66626;SDS011;53498;50.422;14.912;2023-05-24T03:36:26;12.48;;;4.05;;
66626;SDS011;53498;50.422;14.912;2023-05-24T03:38:53;8.68;;;4.32;;
66626;SDS011;53498;50.422;14.912;2023-05-24T03:41:19;9.45;;;3.40;;
66626;SDS011;53498;50.422;14.912;2023-05-24T03:43:45;13.75;;;4.97;;
66626;SDS011;53498;50.422;14.912;2023-05-24T03:46:10;11.90;;;4.30;;
66626;SDS011;53498;50.422;14.912;2023-05-24T03:48:36;12.93;;;4.38;;
66626;SDS011;53498;50.422;14.912;2023-05-24T03:51:02;11.23;;;3.47;;
66626;SDS011;53498;50.422;14.912;2023-05-24T03:53:27;13.52;;;5.25;;
66626;SDS011;53498;50.422;14.912;2023-05-24T03:55:54;12.82;;;3.70;;
66626;SDS011;53498;50.422;14.912;2023-05-24T03:58:19;8.52;;;3.28;;
66626;SDS011;53498;50.422;14.912;2023-05-24T04:00:45;8.32;;;3.33;;
66626;SDS011;53498;50.422;14.912;2023-05-24T04:03:11;9.57;;;3.83;;
66626;SDS011;53498;50.422;14.912;2023-05-24T04:05:38;5.97;;;3.63;;
66626;SDS011;53498;50.422;14.912;2023-05-24T04:08:04;9.52;;;5.03;;
66626;SDS011;53498;50.422;14.912;2023-05-24T04:10:29;12.57;;;3.92;;
66626;SDS011;53498;50.422;14.912;2023-05-24T04:12:55;11.35;;;3.40;;
66626;SDS011;53498;50.422;14.912;2023-05-24T04:15:22;9.23;;;3.42;;
66626;SDS011;53498;50.422;14.912;2023-05-24T04:17:48;8.75;;;3.38;;
66626;SDS011;53498;50.422;14.912;2023-05-24T04:20:19;7.03;;;3.78;;
66626;SDS011;53498;50.422;14.912;2023-05-24T04:22:50;16.90;;;4.00;;
66626;SDS011;53498;50.422;14.912;2023-05-24T04:25:16;8.85;;;3.50;;
66626;SDS011;53498;50.422;14.912;2023-05-24T04:27:41;9.63;;;4.05;;
66626;SDS011;53498;50.422;14.912;2023-05-24T04:30:07;12.57;;;3.75;;
66626;SDS011;53498;50.422;14.912;2023-05-24T04:32:33;8.65;;;4.10;;
66626;SDS011;53498;50.422;14.912;2023-05-24T04:34:59;8.38;;;3.53;;
66626;SDS011;53498;50.422;14.912;2023-05-24T04:37:27;8.57;;;3.75;;
66626;SDS011;53498;50.422;14.912;2023-05-24T04:39:54;11.25;;;3.30;;
66626;SDS011;53498;50.422;14.912;2023-05-24T04:42:20;8.10;;;3.58;;
66626;SDS011;53498;50.422;14.912;2023-05-24T04:44:45;8.30;;;3.47;;
66626;SDS011;53498;50.422;14.912;2023-05-24T04:47:11;12.73;;;3.95;;
66626;SDS011;53498;50.422;14.912;2023-05-24T04:49:37;7.18;;;3.22;;
66626;SDS011;53498;50.422;14.912;2023-05-24T04:52:03;9.05;;;3.65;;
66626;SDS011;53498;50.422;14.912;2023-05-24T04:54:29;6.93;;;3.58;;
66626;SDS011;53498;50.422;14.912;2023-05-24T04:56:55;8.38;;;3.92;;
66626;SDS011;53498;50.422;14.912;2023-05-24T04:59:20;6.75;;;3.58;;
66626;SDS011;53498;50.422;14.912;2023-05-24T05:01:46;10.63;;;3.67;;
66626;SDS011;53498;50.422;14.912;2023-05-24T05:04:12;12.25;;;3.45;;
66626;SDS011;53498;50.422;14.912;2023-05-24T05:06:38;6.60;;;4.05;;
66626;SDS011;53498;50.422;14.912;2023-05-24T05:09:07;7.50;;;3.35;;
66626;SDS011;53498;50.422;14.912;2023-05-24T05:11:34;13.30;;;4.03;;
66626;SDS011;53498;50.422;14.912;2023-05-24T05:14:01;9.73;;;3.78;;
66626;SDS011;53498;50.422;14.912;2023-05-24T05:16:27;7.63;;;3.35;;
66626;SDS011;53498;50.422;14.912;2023-05-24T05:18:52;7.55;;;4.25;;
66626;SDS011;53498;50.422;14.912;2023-05-24T05:21:18;9.60;;;3.78;;
66626;SDS011;53498;50.422;14.912;2023-05-24T05:23:44;9.13;;;3.90;;
66626;SDS011;53498;50.422;14.912;2023-05-24T05:26:10;14.18;;;3.85;;
66626;SDS011;53498;50.422;14.912;2023-05-24T05:28:36;7.00;;;3.50;;
66626;SDS011;53498;50.422;14.912;2023-05-24T05:31:02;8.70;;;3.58;;
66626;SDS011;53498;50.422;14.912;2023-05-24T05:33:29;7.57;;;3.95;;
66626;SDS011;53498;50.422;14.912;2023-05-24T05:35:56;7.63;;;4.20;;
66626;SDS011;53498;50.422;14.912;2023-05-24T05:38:37;12.77;;;4.00;;
66626;SDS011;53498;50.422;14.912;2023-05-24T05:41:02;9.90;;;4.13;;
66626;SDS011;53498;50.422;14.912;2023-05-24T05:43:28;9.77;;;3.67;;
66626;SDS011;53498;50.422;14.912;2023-05-24T05:45:55;9.68;;;3.58;;
66626;SDS011;53498;50.422;14.912;2023-05-24T05:48:20;12.13;;;4.05;;
66626;SDS011;53498;50.422;14.912;2023-05-24T05:50:46;6.63;;;3.60;;
66626;SDS011;53498;50.422;14.912;2023-05-24T05:53:12;9.77;;;3.97;;
66626;SDS011;53498;50.422;14.912;2023-05-24T05:55:37;11.90;;;4.13;;
66626;SDS011;53498;50.422;14.912;2023-05-24T05:58:03;11.20;;;3.78;;
66626;SDS011;53498;50.422;14.912;2023-05-24T06:00:28;8.55;;;3.60;;
66626;SDS011;53498;50.422;14.912;2023-05-24T06:02:54;11.93;;;3.70;;
66626;SDS011;53498;50.422;14.912;2023-05-24T06:05:20;13.10;;;4.28;;
66626;SDS011;53498;50.422;14.912;2023-05-24T06:07:45;10.00;;;3.70;;
66626;SDS011;53498;50.422;14.912;2023-05-24T06:10:11;12.23;;;4.72;;
66626;SDS011;53498;50.422;14.912;2023-05-24T06:12:37;10.80;;;3.70;;
66626;SDS011;53498;50.422;14.912;2023-05-24T06:15:05;7.68;;;3.60;;
66626;SDS011;53498;50.422;14.912;2023-05-24T06:17:32;11.18;;;3.47;;
66626;SDS011;53498;50.422;14.912;2023-05-24T06:19:59;7.38;;;3.20;;
66626;SDS011;53498;50.422;14.912;2023-05-24T06:22:25;5.47;;;2.88;;
66626;SDS011;53498;50.422;14.912;2023-05-24T06:24:53;6.63;;;3.45;;
66626;SDS011;53498;50.422;14.912;2023-05-24T06:27:19;17.30;;;5.45;;
66626;SDS011;53498;50.422;14.912;2023-05-24T06:29:45;11.73;;;3.35;;
66626;SDS011;53498;50.422;14.912;2023-05-24T06:32:11;11.23;;;3.80;;
66626;SDS011;53498;50.422;14.912;2023-05-24T06:34:36;8.45;;;3.28;;
66626;SDS011;53498;50.422;14.912;2023-05-24T06:37:02;6.70;;;3.58;;
66626;SDS011;53498;50.422;14.912;2023-05-24T06:39:28;8.80;;;3.58;;
66626;SDS011;53498;50.422;14.912;2023-05-24T06:41:54;11.32;;;3.95;;
66626;SDS011;53498;50.422;14.912;2023-05-24T06:44:20;8.95;;;3.63;;
66626;SDS011;53498;50.422;14.912;2023-05-24T06:46:47;13.25;;;4.00;;
66626;SDS011;53498;50.422;14.912;2023-05-24T06:49:13;12.93;;;3.22;;
66626;SDS011;53498;50.422;14.912;2023-05-24T06:51:38;9.02;;;2.97;;
66626;SDS011;53498;50.422;14.912;2023-05-24T06:54:04;4.93;;;3.13;;
66626;SDS011;53498;50.422;14.912;2023-05-24T06:56:30;10.10;;;3.92;;
66626;SDS011;53498;50.422;14.912;2023-05-24T06:58:55;8.35;;;3.60;;
66626;SDS011;53498;50.422;14.912;2023-05-24T07:01:21;7.68;;;3.38;;
66626;SDS011;53498;50.422;14.912;2023-05-24T07:03:47;13.35;;;4.10;;
66626;SDS011;53498;50.422;14.912;2023-05-24T07:06:13;4.03;;;2.88;;
66626;SDS011;53498;50.422;14.912;2023-05-24T07:08:40;9.73;;;3.58;;
66626;SDS011;53498;50.422;14.912;2023-05-24T07:11:08;13.13;;;3.47;;
66626;SDS011;53498;50.422;14.912;2023-05-24T07:13:40;7.07;;;3.00;;
66626;SDS011;53498;50.422;14.912;2023-05-24T07:16:06;7.22;;;3.63;;
66626;SDS011;53498;50.422;14.912;2023-05-24T07:18:31;7.93;;;3.15;;
66626;SDS011;53498;50.422;14.912;2023-05-24T07:20:57;10.02;;;3.45;;
66626;SDS011;53498;50.422;14.912;2023-05-24T07:23:23;7.97;;;3.70;;
66626;SDS011;53498;50.422;14.912;2023-05-24T07:25:49;7.78;;;2.88;;
66626;SDS011;53498;50.422;14.912;2023-05-24T07:28:15;11.00;;;3.83;;
66626;SDS011;53498;50.422;14.912;2023-05-24T07:30:45;6.88;;;3.30;;
66626;SDS011;53498;50.422;14.912;2023-05-24T07:33:11;11.07;;;3.78;;
66626;SDS011;53498;50.422;14.912;2023-05-24T07:35:37;8.73;;;4.07;;
66626;SDS011;53498;50.422;14.912;2023-05-24T07:38:03;7.05;;;3.97;;
66626;SDS011;53498;50.422;14.912;2023-05-24T07:40:29;6.90;;;3.25;;
66626;SDS011;53498;50.422;14.912;2023-05-24T07:42:55;6.97;;;3.00;;
66626;SDS011;53498;50.422;14.912;2023-05-24T07:45:20;15.00;;;3.70;;
66626;SDS011;53498;50.422;14.912;2023-05-24T07:47:47;7.68;;;3.28;;
66626;SDS011;53498;50.422;14.912;2023-05-24T07:50:12;5.72;;;2.90;;
66626;SDS011;53498;50.422;14.912;2023-05-24T07:52:38;4.88;;;2.63;;
66626;SDS011;53498;50.422;14.912;2023-05-24T07:55:04;7.20;;;2.53;;
66626;SDS011;53498;50.422;14.912;2023-05-24T07:57:30;7.03;;;3.80;;
66626;SDS011;53498;50.422;14.912;2023-05-24T07:59:56;6.80;;;2.97;;
66626;SDS011;53498;50.422;14.912;2023-05-24T08:02:21;7.32;;;2.80;;
66626;SDS011;53498;50.422;14.912;2023-05-24T08:04:47;7.80;;;2.65;;
66626;SDS011;53498;50.422;14.912;2023-05-24T08:07:12;8.70;;;3.60;;
66626;SDS011;53498;50.422;14.912;2023-05-24T08:09:39;8.00;;;3.10;;
66626;SDS011;53498;50.422;14.912;2023-05-24T08:12:06;6.90;;;2.75;;
66626;SDS011;53498;50.422;14.912;2023-05-24T08:14:31;7.20;;;3.00;;
66626;SDS011;53498;50.422;14.912;2023-05-24T08:16:57;9.73;;;2.95;;
66626;SDS011;53498;50.422;14.912;2023-05-24T08:19:28;5.63;;;2.70;;
66626;SDS011;53498;50.422;14.912;2023-05-24T08:21:59;7.47;;;2.78;;
66626;SDS011;53498;50.422;14.912;2023-05-24T08:24:29;6.57;;;2.78;;
66626;SDS011;53498;50.422;14.912;2023-05-24T08:26:55;10.75;;;3.00;;
66626;SDS011;53498;50.422;14.912;2023-05-24T08:29:21;7.47;;;2.50;;
66626;SDS011;53498;50.422;14.912;2023-05-24T08:31:47;6.88;;;2.67;;
66626;SDS011;53498;50.422;14.912;2023-05-24T08:34:12;9.32;;;3.40;;
66626;SDS011;53498;50.422;14.912;2023-05-24T08:36:38;8.43;;;3.13;;
66626;SDS011;53498;50.422;14.912;2023-05-24T08:39:05;11.07;;;3.67;;
66626;SDS011;53498;50.422;14.912;2023-05-24T08:41:30;8.27;;;3.55;;
66626;SDS011;53498;50.422;14.912;2023-05-24T08:44:01;8.13;;;3.25;;
66626;SDS011;53498;50.422;14.912;2023-05-24T08:46:30;4.60;;;2.60;;
66626;SDS011;53498;50.422;14.912;2023-05-24T08:49:00;5.88;;;3.03;;
66626;SDS011;53498;50.422;14.912;2023-05-24T08:51:29;7.05;;;2.28;;
66626;SDS011;53498;50.422;14.912;2023-05-24T08:53:59;5.97;;;2.40;;
66626;SDS011;53498;50.422;14.912;2023-05-24T08:56:26;6.57;;;2.92;;
66626;SDS011;53498;50.422;14.912;2023-05-24T08:58:53;8.88;;;3.08;;
66626;SDS011;53498;50.422;14.912;2023-05-24T09:01:19;8.13;;;3.03;;
66626;SDS011;53498;50.422;14.912;2023-05-24T09:03:46;6.55;;;2.72;;
66626;SDS011;53498;50.422;14.912;2023-05-24T09:06:12;10.18;;;2.70;;
66626;SDS011;53498;50.422;14.912;2023-05-24T09:08:41;7.30;;;3.42;;
66626;SDS011;53498;50.422;14.912;2023-05-24T09:11:07;6.82;;;2.72;;
66626;SDS011;53498;50.422;14.912;2023-05-24T09:13:34;7.45;;;3.13;;
66626;SDS011;53498;50.422;14.912;2023-05-24T09:16:00;6.22;;;2.50;;
66626;SDS011;53498;50.422;14.912;2023-05-24T09:18:26;10.43;;;2.60;;
66626;SDS011;53498;50.422;14.912;2023-05-24T09:20:52;9.25;;;3.00;;
66626;SDS011;53498;50.422;14.912;2023-05-24T09:23:18;6.18;;;2.63;;
66626;SDS011;53498;50.422;14.912;2023-05-24T09:25:45;3.88;;;2.13;;
66626;SDS011;53498;50.422;14.912;2023-05-24T09:28:13;10.80;;;2.45;;
66626;SDS011;53498;50.422;14.912;2023-05-24T09:30:44;8.40;;;2.83;;
66626;SDS011;53498;50.422;14.912;2023-05-24T09:33:27;5.53;;;2.78;;
66626;SDS011;53498;50.422;14.912;2023-05-24T09:36:03;8.05;;;2.60;;
66626;SDS011;53498;50.422;14.912;2023-05-24T09:38:29;6.20;;;3.67;;
66626;SDS011;53498;50.422;14.912;2023-05-24T09:40:59;5.97;;;2.90;;
66626;SDS011;53498;50.422;14.912;2023-05-24T09:43:30;5.18;;;2.30;;
66626;SDS011;53498;50.422;14.912;2023-05-24T09:45:57;8.10;;;2.88;;
66626;SDS011;53498;50.422;14.912;2023-05-24T09:48:24;8.48;;;2.53;;
66626;SDS011;53498;50.422;14.912;2023-05-24T09:51:03;6.55;;;2.80;;
66626;SDS011;53498;50.422;14.912;2023-05-24T09:53:33;6.65;;;2.40;;
66626;SDS011;53498;50.422;14.912;2023-05-24T09:56:00;5.18;;;2.13;;
66626;SDS011;53498;50.422;14.912;2023-05-24T09:58:31;7.43;;;4.05;;
66626;SDS011;53498;50.422;14.912;2023-05-24T10:01:04;7.10;;;3.00;;
66626;SDS011;53498;50.422;14.912;2023-05-24T10:03:32;6.65;;;2.70;;
66626;SDS011;53498;50.422;14.912;2023-05-24T10:05:58;4.78;;;2.38;;
66626;SDS011;53498;50.422;14.912;2023-05-24T10:08:25;6.88;;;2.25;;
66626;SDS011;53498;50.422;14.912;2023-05-24T10:10:52;6.00;;;2.72;;
66626;SDS011;53498;50.422;14.912;2023-05-24T10:13:17;6.75;;;2.55;;
66626;SDS011;53498;50.422;14.912;2023-05-24T10:15:45;7.35;;;2.70;;
66626;SDS011;53498;50.422;14.912;2023-05-24T10:18:11;7.25;;;2.85;;
66626;SDS011;53498;50.422;14.912;2023-05-24T10:20:37;6.20;;;2.95;;
66626;SDS011;53498;50.422;14.912;2023-05-24T10:23:03;8.70;;;2.50;;
66626;SDS011;53498;50.422;14.912;2023-05-24T10:25:34;6.00;;;2.38;;
66626;SDS011;53498;50.422;14.912;2023-05-24T10:28:10;5.47;;;2.53;;
66626;SDS011;53498;50.422;14.912;2023-05-24T10:33:33;6.72;;;2.65;;
66626;SDS011;53498;50.422;14.912;2023-05-24T10:36:01;5.65;;;2.25;;
66626;SDS011;53498;50.422;14.912;2023-05-24T10:38:29;6.43;;;2.20;;
66626;SDS011;53498;50.422;14.912;2023-05-24T10:40:55;5.05;;;2.30;;
66626;SDS011;53498;50.422;14.912;2023-05-24T10:43:22;7.60;;;2.28;;
66626;SDS011;53498;50.422;14.912;2023-05-24T10:45:48;8.13;;;3.53;;
66626;SDS011;53498;50.422;14.912;2023-05-24T10:50:41;4.13;;;2.45;;
66626;SDS011;53498;50.422;14.912;2023-05-24T10:55:50;4.93;;;2.70;;
66626;SDS011;53498;50.422;14.912;2023-05-24T10:58:17;5.35;;;2.90;;
66626;SDS011;53498;50.422;14.912;2023-05-24T11:00:44;4.53;;;2.00;;
66626;SDS011;53498;50.422;14.912;2023-05-24T11:03:10;11.02;;;2.75;;
66626;SDS011;53498;50.422;14.912;2023-05-24T11:08:33;8.07;;;2.67;;
66626;SDS011;53498;50.422;14.912;2023-05-24T11:11:06;3.80;;;1.88;;
66626;SDS011;53498;50.422;14.912;2023-05-24T11:13:41;5.95;;;3.53;;
66626;SDS011;53498;50.422;14.912;2023-05-24T11:16:07;9.55;;;3.38;;
66626;SDS011;53498;50.422;14.912;2023-05-24T11:18:33;7.93;;;2.85;;
66626;SDS011;53498;50.422;14.912;2023-05-24T11:21:04;5.22;;;2.80;;
66626;SDS011;53498;50.422;14.912;2023-05-24T11:23:31;6.80;;;2.90;;
66626;SDS011;53498;50.422;14.912;2023-05-24T11:25:56;5.72;;;2.42;;
66626;SDS011;53498;50.422;14.912;2023-05-24T11:28:23;6.90;;;2.35;;
66626;SDS011;53498;50.422;14.912;2023-05-24T11:30:48;6.68;;;3.00;;
66626;SDS011;53498;50.422;14.912;2023-05-24T11:33:19;7.88;;;2.78;;
66626;SDS011;53498;50.422;14.912;2023-05-24T11:35:47;6.63;;;3.20;;
66626;SDS011;53498;50.422;14.912;2023-05-24T11:38:17;6.93;;;2.50;;
66626;SDS011;53498;50.422;14.912;2023-05-24T11:40:45;3.08;;;2.20;;
66626;SDS011;53498;50.422;14.912;2023-05-24T11:43:12;6.95;;;2.97;;
66626;SDS011;53498;50.422;14.912;2023-05-24T11:45:42;9.07;;;3.22;;
66626;SDS011;53498;50.422;14.912;2023-05-24T11:48:10;5.32;;;2.75;;
66626;SDS011;53498;50.422;14.912;2023-05-24T11:50:43;4.82;;;2.95;;
66626;SDS011;53498;50.422;14.912;2023-05-24T11:53:11;6.47;;;2.55;;
66626;SDS011;53498;50.422;14.912;2023-05-24T11:55:38;6.10;;;2.33;;
66626;SDS011;53498;50.422;14.912;2023-05-24T11:58:07;6.45;;;2.53;;
66626;SDS011;53498;50.422;14.912;2023-05-24T12:00:36;7.75;;;2.72;;
66626;SDS011;53498;50.422;14.912;2023-05-24T12:03:02;5.85;;;2.75;;
66626;SDS011;53498;50.422;14.912;2023-05-24T12:05:32;7.57;;;2.45;;
66626;SDS011;53498;50.422;14.912;2023-05-24T12:08:01;8.43;;;2.58;;
66626;SDS011;53498;50.422;14.912;2023-05-24T12:10:33;4.55;;;2.60;;
66626;SDS011;53498;50.422;14.912;2023-05-24T12:13:03;5.33;;;2.43;;
66626;SDS011;53498;50.422;14.912;2023-05-24T12:15:30;4.82;;;2.53;;
66626;SDS011;53498;50.422;14.912;2023-05-24T12:17:57;4.75;;;2.30;;
66626;SDS011;53498;50.422;14.912;2023-05-24T12:20:23;7.57;;;2.70;;
66626;SDS011;53498;50.422;14.912;2023-05-24T12:22:53;6.03;;;2.60;;
66626;SDS011;53498;50.422;14.912;2023-05-24T12:25:19;4.57;;;2.47;;
66626;SDS011;53498;50.422;14.912;2023-05-24T12:27:51;5.18;;;2.55;;
66626;SDS011;53498;50.422;14.912;2023-05-24T12:30:20;6.63;;;2.78;;
66626;SDS011;53498;50.422;14.912;2023-05-24T12:32:51;4.00;;;2.17;;
66626;SDS011;53498;50.422;14.912;2023-05-24T12:35:20;9.88;;;3.00;;
66626;SDS011;53498;50.422;14.912;2023-05-24T12:37:47;7.65;;;2.63;;
66626;SDS011;53498;50.422;14.912;2023-05-24T12:40:22;4.70;;;2.38;;
66626;SDS011;53498;50.422;14.912;2023-05-24T12:42:54;9.60;;;2.60;;
66626;SDS011;53498;50.422;14.912;2023-05-24T12:45:25;6.60;;;2.70;;
66626;SDS011;53498;50.422;14.912;2023-05-24T12:47:55;7.93;;;3.10;;
66626;SDS011;53498;50.422;14.912;2023-05-24T12:50:24;5.82;;;2.83;;
66626;SDS011;53498;50.422;14.912;2023-05-24T12:52:51;6.32;;;2.55;;
66626;SDS011;53498;50.422;14.912;2023-05-24T12:55:24;6.60;;;2.72;;
66626;SDS011;53498;50.422;14.912;2023-05-24T12:57:51;9.27;;;2.72;;
66626;SDS011;53498;50.422;14.912;2023-05-24T13:00:22;6.68;;;3.55;;
66626;SDS011;53498;50.422;14.912;2023-05-24T13:02:51;6.43;;;2.63;;
66626;SDS011;53498;50.422;14.912;2023-05-24T13:05:24;6.15;;;2.63;;
66626;SDS011;53498;50.422;14.912;2023-05-24T13:07:52;6.28;;;3.20;;
66626;SDS011;53498;50.422;14.912;2023-05-24T13:10:18;4.40;;;2.60;;
66626;SDS011;53498;50.422;14.912;2023-05-24T13:12:48;5.22;;;2.60;;
66626;SDS011;53498;50.422;14.912;2023-05-24T13:15:14;5.40;;;2.80;;
66626;SDS011;53498;50.422;14.912;2023-05-24T13:17:40;5.60;;;2.70;;
66626;SDS011;53498;50.422;14.912;2023-05-24T13:20:07;6.00;;;2.85;;
66626;SDS011;53498;50.422;14.912;2023-05-24T13:22:38;8.27;;;2.90;;
66626;SDS011;53498;50.422;14.912;2023-05-24T13:25:04;7.00;;;2.90;;
66626;SDS011;53498;50.422;14.912;2023-05-24T13:27:31;6.18;;;3.03;;
66626;SDS011;53498;50.422;14.912;2023-05-24T13:29:57;6.03;;;2.88;;
66626;SDS011;53498;50.422;14.912;2023-05-24T13:32:23;8.93;;;2.92;;
66626;SDS011;53498;50.422;14.912;2023-05-24T13:34:49;7.05;;;2.80;;
66626;SDS011;53498;50.422;14.912;2023-05-24T13:37:15;5.20;;;2.25;;
66626;SDS011;53498;50.422;14.912;2023-05-24T13:39:41;3.60;;;2.40;;
66626;SDS011;53498;50.422;14.912;2023-05-24T13:42:07;5.40;;;2.53;;
66626;SDS011;53498;50.422;14.912;2023-05-24T13:44:33;7.28;;;2.78;;
66626;SDS011;53498;50.422;14.912;2023-05-24T13:46:59;9.63;;;3.03;;
66626;SDS011;53498;50.422;14.912;2023-05-24T13:49:25;6.53;;;2.60;;
66626;SDS011;53498;50.422;14.912;2023-05-24T13:51:52;11.57;;;3.42;;
66626;SDS011;53498;50.422;14.912;2023-05-24T13:54:17;9.82;;;3.13;;
66626;SDS011;53498;50.422;14.912;2023-05-24T13:56:43;6.65;;;3.55;;
66626;SDS011;53498;50.422;14.912;2023-05-24T13:59:09;12.38;;;3.40;;
66626;SDS011;53498;50.422;14.912;2023-05-24T14:01:36;7.95;;;3.33;;
66626;SDS011;53498;50.422;14.912;2023-05-24T14:04:02;6.03;;;3.13;;
66626;SDS011;53498;50.422;14.912;2023-05-24T14:06:29;7.85;;;3.50;;
66626;SDS011;53498;50.422;14.912;2023-05-24T14:08:56;8.95;;;3.53;;
66626;SDS011;53498;50.422;14.912;2023-05-24T14:11:22;11.80;;;3.60;;
66626;SDS011;53498;50.422;14.912;2023-05-24T14:13:49;5.57;;;2.67;;
66626;SDS011;53498;50.422;14.912;2023-05-24T14:16:15;5.72;;;2.67;;
66626;SDS011;53498;50.422;14.912;2023-05-24T14:18:41;15.00;;;4.13;;
66626;SDS011;53498;50.422;14.912;2023-05-24T14:21:19;5.70;;;3.55;;
66626;SDS011;53498;50.422;14.912;2023-05-24T14:23:51;8.90;;;3.47;;
66626;SDS011;53498;50.422;14.912;2023-05-24T14:26:23;6.85;;;3.20;;
66626;SDS011;53498;50.422;14.912;2023-05-24T14:28:48;4.68;;;3.00;;
66626;SDS011;53498;50.422;14.912;2023-05-24T14:31:15;8.45;;;3.03;;
66626;SDS011;53498;50.422;14.912;2023-05-24T14:33:41;7.63;;;3.22;;
66626;SDS011;53498;50.422;14.912;2023-05-24T14:36:06;6.22;;;2.65;;
66626;SDS011;53498;50.422;14.912;2023-05-24T14:38:32;6.72;;;3.17;;
66626;SDS011;53498;50.422;14.912;2023-05-24T14:40:58;5.35;;;2.92;;
66626;SDS011;53498;50.422;14.912;2023-05-24T14:43:25;6.15;;;2.80;;
66626;SDS011;53498;50.422;14.912;2023-05-24T14:45:51;6.95;;;2.97;;
66626;SDS011;53498;50.422;14.912;2023-05-24T14:48:17;6.07;;;3.20;;
66626;SDS011;53498;50.422;14.912;2023-05-24T14:50:43;7.60;;;3.25;;
66626;SDS011;53498;50.422;14.912;2023-05-24T14:53:08;7.40;;;2.90;;